sensor_id;sensor_type;location;lat;lon;timestamp;temperature;humidity
52889;DHT22;41413;52.770;6.892;2024-02-16T00:02:08;11.10;99.90
52889;DHT22;41413;52.770;6.892;2024-02-16T00:04:34;11.10;99.90
52889;DHT22;41413;52.770;6.892;2024-02-16T00:07:01;11.10;99.90
52889;DHT22;41413;52.770;6.892;2024-02-16T00:09:28;11.10;99.90
52889;DHT22;41413;52.770;6.892;2024-02-16T00:11:55;11.10;99.90
52889;DHT22;41413;52.770;6.892;2024-02-16T00:14:22;11.10;99.90
52889;DHT22;41413;52.770;6.892;2024-02-16T00:16:48;11.10;99.90
52889;DHT22;41413;52.770;6.892;2024-02-16T00:19:15;11.00;99.90
52889;DHT22;41413;52.770;6.892;2024-02-16T00:21:42;11.00;99.90
52889;DHT22;41413;52.770;6.892;2024-02-16T00:24:10;11.00;99.90
52889;DHT22;41413;52.770;6.892;2024-02-16T00:26:37;11.00;99.90
52889;DHT22;41413;52.770;6.892;2024-02-16T00:29:06;11.00;99.90
52889;DHT22;41413;52.770;6.892;2024-02-16T00:31:33;11.00;99.90
52889;DHT22;41413;52.770;6.892;2024-02-16T00:34:00;11.00;99.90
52889;DHT22;41413;52.770;6.892;2024-02-16T00:36:27;11.00;99.90
52889;DHT22;41413;52.770;6.892;2024-02-16T00:38:55;11.00;99.90
52889;DHT22;41413;52.770;6.892;2024-02-16T00:41:23;11.00;99.90
52889;DHT22;41413;52.770;6.892;2024-02-16T00:43:50;11.00;99.90
52889;DHT22;41413;52.770;6.892;2024-02-16T00:46:18;10.90;99.90
52889;DHT22;41413;52.770;6.892;2024-02-16T00:48:45;10.90;99.90
52889;DHT22;41413;52.770;6.892;2024-02-16T00:51:13;10.90;99.90
52889;DHT22;41413;52.770;6.892;2024-02-16T00:53:40;10.90;99.90
52889;DHT22;41413;52.770;6.892;2024-02-16T00:56:07;10.90;99.90
52889;DHT22;41413;52.770;6.892;2024-02-16T00:58:35;10.90;99.90
52889;DHT22;41413;52.770;6.892;2024-02-16T01:01:04;10.90;99.90
52889;DHT22;41413;52.770;6.892;2024-02-16T01:03:31;10.90;99.90
52889;DHT22;41413;52.770;6.892;2024-02-16T01:05:58;10.90;99.90
52889;DHT22;41413;52.770;6.892;2024-02-16T01:08:24;10.90;99.90
52889;DHT22;41413;52.770;6.892;2024-02-16T01:10:53;10.90;99.90
52889;DHT22;41413;52.770;6.892;2024-02-16T01:13:20;10.90;99.90
52889;DHT22;41413;52.770;6.892;2024-02-16T01:15:47;10.80;99.90
52889;DHT22;41413;52.770;6.892;2024-02-16T01:18:14;10.80;99.90
52889;DHT22;41413;52.770;6.892;2024-02-16T01:20:40;10.80;99.90
52889;DHT22;41413;52.770;6.892;2024-02-16T01:23:07;10.70;99.90
52889;DHT22;41413;52.770;6.892;2024-02-16T01:25:34;10.80;99.90
52889;DHT22;41413;52.770;6.892;2024-02-16T01:28:00;10.70;99.90
52889;DHT22;41413;52.770;6.892;2024-02-16T01:30:27;10.70;99.90
52889;DHT22;41413;52.770;6.892;2024-02-16T01:32:54;10.70;99.90
52889;DHT22;41413;52.770;6.892;2024-02-16T01:35:21;10.60;99.90
52889;DHT22;41413;52.770;6.892;2024-02-16T01:37:48;10.60;99.90
52889;DHT22;41413;52.770;6.892;2024-02-16T01:40:15;10.60;99.90
52889;DHT22;41413;52.770;6.892;2024-02-16T01:42:44;10.60;99.90
52889;DHT22;41413;52.770;6.892;2024-02-16T01:45:11;10.60;99.90
52889;DHT22;41413;52.770;6.892;2024-02-16T01:47:40;10.60;99.90
52889;DHT22;41413;52.770;6.892;2024-02-16T01:50:09;10.60;99.90
52889;DHT22;41413;52.770;6.892;2024-02-16T01:52:36;10.60;99.90
52889;DHT22;41413;52.770;6.892;2024-02-16T01:55:04;10.50;99.90
52889;DHT22;41413;52.770;6.892;2024-02-16T01:57:32;10.50;99.90
52889;DHT22;41413;52.770;6.892;2024-02-16T01:59:59;10.60;99.90
52889;DHT22;41413;52.770;6.892;2024-02-16T02:02:26;10.60;99.90
52889;DHT22;41413;52.770;6.892;2024-02-16T02:04:54;10.50;99.90
52889;DHT22;41413;52.770;6.892;2024-02-16T02:07:25;10.50;99.90
52889;DHT22;41413;52.770;6.892;2024-02-16T02:09:54;10.50;99.90
52889;DHT22;41413;52.770;6.892;2024-02-16T02:12:21;10.50;99.90
52889;DHT22;41413;52.770;6.892;2024-02-16T02:14:49;10.50;99.90
52889;DHT22;41413;52.770;6.892;2024-02-16T02:17:17;10.50;99.90
52889;DHT22;41413;52.770;6.892;2024-02-16T02:19:46;10.50;99.90
52889;DHT22;41413;52.770;6.892;2024-02-16T02:22:17;10.40;99.90
52889;DHT22;41413;52.770;6.892;2024-02-16T02:24:45;10.40;99.90
52889;DHT22;41413;52.770;6.892;2024-02-16T02:27:13;10.40;99.90
52889;DHT22;41413;52.770;6.892;2024-02-16T02:29:40;10.40;99.90
52889;DHT22;41413;52.770;6.892;2024-02-16T02:32:08;10.40;99.90
52889;DHT22;41413;52.770;6.892;2024-02-16T02:34:35;10.40;99.90
52889;DHT22;41413;52.770;6.892;2024-02-16T02:37:03;10.40;99.90
52889;DHT22;41413;52.770;6.892;2024-02-16T02:39:30;10.40;99.90
52889;DHT22;41413;52.770;6.892;2024-02-16T02:41:58;10.40;99.90
52889;DHT22;41413;52.770;6.892;2024-02-16T02:44:25;10.40;99.90
52889;DHT22;41413;52.770;6.892;2024-02-16T02:46:52;10.50;99.90
52889;DHT22;41413;52.770;6.892;2024-02-16T02:49:19;10.50;99.90
52889;DHT22;41413;52.770;6.892;2024-02-16T02:51:46;10.40;99.90
52889;DHT22;41413;52.770;6.892;2024-02-16T02:54:13;10.40;99.90
52889;DHT22;41413;52.770;6.892;2024-02-16T02:56:39;10.40;99.90
52889;DHT22;41413;52.770;6.892;2024-02-16T02:59:06;10.40;99.90
52889;DHT22;41413;52.770;6.892;2024-02-16T03:01:35;10.40;99.90
52889;DHT22;41413;52.770;6.892;2024-02-16T03:04:02;10.50;99.90
52889;DHT22;41413;52.770;6.892;2024-02-16T03:06:29;10.40;99.90
52889;DHT22;41413;52.770;6.892;2024-02-16T03:08:56;10.40;99.90
52889;DHT22;41413;52.770;6.892;2024-02-16T03:11:23;10.50;99.90
52889;DHT22;41413;52.770;6.892;2024-02-16T03:13:50;10.50;99.90
52889;DHT22;41413;52.770;6.892;2024-02-16T03:16:16;10.60;99.90
52889;DHT22;41413;52.770;6.892;2024-02-16T03:18:43;10.60;99.90
52889;DHT22;41413;52.770;6.892;2024-02-16T03:21:13;10.70;99.90
52889;DHT22;41413;52.770;6.892;2024-02-16T03:23:43;10.70;99.90
52889;DHT22;41413;52.770;6.892;2024-02-16T03:26:17;10.70;99.90
52889;DHT22;41413;52.770;6.892;2024-02-16T03:28:45;10.70;99.90
52889;DHT22;41413;52.770;6.892;2024-02-16T03:31:22;10.70;99.90
52889;DHT22;41413;52.770;6.892;2024-02-16T03:33:50;10.80;99.90
52889;DHT22;41413;52.770;6.892;2024-02-16T03:36:19;10.80;99.90
52889;DHT22;41413;52.770;6.892;2024-02-16T03:38:47;10.80;99.90
52889;DHT22;41413;52.770;6.892;2024-02-16T03:41:21;10.80;99.90
52889;DHT22;41413;52.770;6.892;2024-02-16T03:43:48;10.80;99.90
52889;DHT22;41413;52.770;6.892;2024-02-16T03:46:15;10.80;99.90
52889;DHT22;41413;52.770;6.892;2024-02-16T03:48:42;10.80;99.90
52889;DHT22;41413;52.770;6.892;2024-02-16T03:51:09;10.90;99.90
52889;DHT22;41413;52.770;6.892;2024-02-16T03:53:36;10.90;99.90
52889;DHT22;41413;52.770;6.892;2024-02-16T03:56:03;10.90;99.90
52889;DHT22;41413;52.770;6.892;2024-02-16T03:58:31;10.90;99.90
52889;DHT22;41413;52.770;6.892;2024-02-16T04:00:58;10.90;99.90
52889;DHT22;41413;52.770;6.892;2024-02-16T04:03:25;10.90;99.90
52889;DHT22;41413;52.770;6.892;2024-02-16T04:05:51;11.00;99.90
52889;DHT22;41413;52.770;6.892;2024-02-16T04:08:19;11.00;99.90
52889;DHT22;41413;52.770;6.892;2024-02-16T04:10:46;11.00;99.90
52889;DHT22;41413;52.770;6.892;2024-02-16T04:13:13;11.00;99.90
52889;DHT22;41413;52.770;6.892;2024-02-16T04:15:40;11.10;99.90
52889;DHT22;41413;52.770;6.892;2024-02-16T04:18:06;11.00;99.90
52889;DHT22;41413;52.770;6.892;2024-02-16T04:20:33;11.10;99.90
52889;DHT22;41413;52.770;6.892;2024-02-16T04:23:01;11.10;99.90
52889;DHT22;41413;52.770;6.892;2024-02-16T04:25:27;11.10;99.90
52889;DHT22;41413;52.770;6.892;2024-02-16T04:27:54;11.10;99.90
52889;DHT22;41413;52.770;6.892;2024-02-16T04:30:21;11.10;99.90
52889;DHT22;41413;52.770;6.892;2024-02-16T04:32:48;11.10;99.90
52889;DHT22;41413;52.770;6.892;2024-02-16T04:35:15;11.10;99.90
52889;DHT22;41413;52.770;6.892;2024-02-16T04:37:42;11.10;99.90
52889;DHT22;41413;52.770;6.892;2024-02-16T04:40:09;11.10;99.90
52889;DHT22;41413;52.770;6.892;2024-02-16T04:42:39;11.10;99.90
52889;DHT22;41413;52.770;6.892;2024-02-16T04:45:12;11.10;99.90
52889;DHT22;41413;52.770;6.892;2024-02-16T04:47:40;11.00;99.90
52889;DHT22;41413;52.770;6.892;2024-02-16T04:50:07;11.10;99.90
52889;DHT22;41413;52.770;6.892;2024-02-16T04:52:37;11.10;99.90
52889;DHT22;41413;52.770;6.892;2024-02-16T04:55:07;11.10;99.90
52889;DHT22;41413;52.770;6.892;2024-02-16T04:57:34;11.10;99.90
52889;DHT22;41413;52.770;6.892;2024-02-16T05:00:01;11.10;99.90
52889;DHT22;41413;52.770;6.892;2024-02-16T05:02:29;11.10;99.90
52889;DHT22;41413;52.770;6.892;2024-02-16T05:04:55;11.10;99.90
52889;DHT22;41413;52.770;6.892;2024-02-16T05:07:24;11.10;99.90
52889;DHT22;41413;52.770;6.892;2024-02-16T05:09:51;11.10;99.90
52889;DHT22;41413;52.770;6.892;2024-02-16T05:12:22;11.10;99.90
52889;DHT22;41413;52.770;6.892;2024-02-16T05:14:52;11.10;99.90
52889;DHT22;41413;52.770;6.892;2024-02-16T05:17:19;11.10;99.90
52889;DHT22;41413;52.770;6.892;2024-02-16T05:19:49;11.10;99.90
52889;DHT22;41413;52.770;6.892;2024-02-16T05:22:16;11.00;99.90
52889;DHT22;41413;52.770;6.892;2024-02-16T05:24:46;11.00;99.90
52889;DHT22;41413;52.770;6.892;2024-02-16T05:27:13;11.00;99.90
52889;DHT22;41413;52.770;6.892;2024-02-16T05:29:40;11.00;99.90
52889;DHT22;41413;52.770;6.892;2024-02-16T05:32:07;11.00;99.90
52889;DHT22;41413;52.770;6.892;2024-02-16T05:34:34;11.00;99.90
52889;DHT22;41413;52.770;6.892;2024-02-16T05:37:05;11.10;99.90
52889;DHT22;41413;52.770;6.892;2024-02-16T05:39:38;11.10;99.90
52889;DHT22;41413;52.770;6.892;2024-02-16T05:42:23;11.10;99.90
52889;DHT22;41413;52.770;6.892;2024-02-16T05:44:50;11.20;99.90
52889;DHT22;41413;52.770;6.892;2024-02-16T05:47:18;11.20;99.90
52889;DHT22;41413;52.770;6.892;2024-02-16T05:49:46;11.20;99.90
52889;DHT22;41413;52.770;6.892;2024-02-16T05:52:13;11.20;99.90
52889;DHT22;41413;52.770;6.892;2024-02-16T05:54:47;11.20;99.90
52889;DHT22;41413;52.770;6.892;2024-02-16T05:57:15;11.20;99.90
52889;DHT22;41413;52.770;6.892;2024-02-16T05:59:42;11.20;99.90
52889;DHT22;41413;52.770;6.892;2024-02-16T06:02:09;11.30;99.90
52889;DHT22;41413;52.770;6.892;2024-02-16T06:04:39;11.30;99.90
52889;DHT22;41413;52.770;6.892;2024-02-16T06:07:06;11.30;99.90
52889;DHT22;41413;52.770;6.892;2024-02-16T06:09:33;11.30;99.90
52889;DHT22;41413;52.770;6.892;2024-02-16T06:12:03;11.40;99.90
52889;DHT22;41413;52.770;6.892;2024-02-16T06:14:31;11.40;99.90
52889;DHT22;41413;52.770;6.892;2024-02-16T06:16:58;11.40;99.90
52889;DHT22;41413;52.770;6.892;2024-02-16T06:19:26;11.40;99.90
52889;DHT22;41413;52.770;6.892;2024-02-16T06:21:54;11.50;99.90
52889;DHT22;41413;52.770;6.892;2024-02-16T06:24:24;11.50;99.90
52889;DHT22;41413;52.770;6.892;2024-02-16T06:26:51;11.40;99.90
52889;DHT22;41413;52.770;6.892;2024-02-16T06:29:23;11.50;99.90
52889;DHT22;41413;52.770;6.892;2024-02-16T06:31:50;11.40;99.90
52889;DHT22;41413;52.770;6.892;2024-02-16T06:34:17;11.50;99.90
52889;DHT22;41413;52.770;6.892;2024-02-16T06:36:44;11.50;99.90
52889;DHT22;41413;52.770;6.892;2024-02-16T06:39:11;11.50;99.90
52889;DHT22;41413;52.770;6.892;2024-02-16T06:41:43;11.50;99.90
52889;DHT22;41413;52.770;6.892;2024-02-16T06:44:11;11.60;99.90
52889;DHT22;41413;52.770;6.892;2024-02-16T06:46:38;11.60;99.90
52889;DHT22;41413;52.770;6.892;2024-02-16T06:49:05;11.50;99.90
52889;DHT22;41413;52.770;6.892;2024-02-16T06:51:31;11.50;99.90
52889;DHT22;41413;52.770;6.892;2024-02-16T06:53:58;11.50;99.90
52889;DHT22;41413;52.770;6.892;2024-02-16T06:56:25;11.50;99.90
52889;DHT22;41413;52.770;6.892;2024-02-16T06:58:52;11.50;99.90
52889;DHT22;41413;52.770;6.892;2024-02-16T07:01:19;11.50;99.90
52889;DHT22;41413;52.770;6.892;2024-02-16T07:03:46;11.50;99.90
52889;DHT22;41413;52.770;6.892;2024-02-16T07:06:13;11.50;99.90
52889;DHT22;41413;52.770;6.892;2024-02-16T07:08:43;11.50;99.90
52889;DHT22;41413;52.770;6.892;2024-02-16T07:11:10;11.50;99.90
52889;DHT22;41413;52.770;6.892;2024-02-16T07:13:40;11.60;99.90
52889;DHT22;41413;52.770;6.892;2024-02-16T07:16:09;11.60;99.90
52889;DHT22;41413;52.770;6.892;2024-02-16T07:18:36;11.70;99.90
52889;DHT22;41413;52.770;6.892;2024-02-16T07:21:03;11.70;99.90
52889;DHT22;41413;52.770;6.892;2024-02-16T07:23:30;11.70;99.90
52889;DHT22;41413;52.770;6.892;2024-02-16T07:25:57;11.70;99.90
52889;DHT22;41413;52.770;6.892;2024-02-16T07:28:25;11.70;99.90
52889;DHT22;41413;52.770;6.892;2024-02-16T07:30:52;11.70;99.90
52889;DHT22;41413;52.770;6.892;2024-02-16T07:33:19;11.70;99.90
52889;DHT22;41413;52.770;6.892;2024-02-16T07:35:47;11.70;99.90
52889;DHT22;41413;52.770;6.892;2024-02-16T07:38:14;11.80;99.90
52889;DHT22;41413;52.770;6.892;2024-02-16T07:40:40;11.80;99.90
52889;DHT22;41413;52.770;6.892;2024-02-16T07:43:07;11.80;99.90
52889;DHT22;41413;52.770;6.892;2024-02-16T07:45:35;11.90;99.90
52889;DHT22;41413;52.770;6.892;2024-02-16T07:48:02;11.90;99.90
52889;DHT22;41413;52.770;6.892;2024-02-16T07:50:32;11.90;99.90
52889;DHT22;41413;52.770;6.892;2024-02-16T07:52:59;12.10;99.90
52889;DHT22;41413;52.770;6.892;2024-02-16T07:55:25;12.00;99.90
52889;DHT22;41413;52.770;6.892;2024-02-16T07:57:52;11.90;99.90
52889;DHT22;41413;52.770;6.892;2024-02-16T08:00:19;12.00;99.90
52889;DHT22;41413;52.770;6.892;2024-02-16T08:02:46;12.00;99.90
52889;DHT22;41413;52.770;6.892;2024-02-16T08:05:13;11.90;99.90
52889;DHT22;41413;52.770;6.892;2024-02-16T08:07:41;11.90;99.90
52889;DHT22;41413;52.770;6.892;2024-02-16T08:10:11;11.90;99.90
52889;DHT22;41413;52.770;6.892;2024-02-16T08:12:39;12.00;99.90
52889;DHT22;41413;52.770;6.892;2024-02-16T08:15:08;12.10;99.90
52889;DHT22;41413;52.770;6.892;2024-02-16T08:17:36;12.10;99.90
52889;DHT22;41413;52.770;6.892;2024-02-16T08:20:03;12.10;99.90
52889;DHT22;41413;52.770;6.892;2024-02-16T08:22:30;12.10;99.90
52889;DHT22;41413;52.770;6.892;2024-02-16T08:24:57;12.10;99.90
52889;DHT22;41413;52.770;6.892;2024-02-16T08:27:24;12.10;99.90
52889;DHT22;41413;52.770;6.892;2024-02-16T08:29:51;12.10;99.90
52889;DHT22;41413;52.770;6.892;2024-02-16T08:32:20;12.10;99.90
52889;DHT22;41413;52.770;6.892;2024-02-16T08:34:47;12.10;99.90
52889;DHT22;41413;52.770;6.892;2024-02-16T08:37:17;12.10;99.90
52889;DHT22;41413;52.770;6.892;2024-02-16T08:39:44;12.20;99.90
52889;DHT22;41413;52.770;6.892;2024-02-16T08:42:11;12.20;99.90
52889;DHT22;41413;52.770;6.892;2024-02-16T08:44:38;12.20;99.90
52889;DHT22;41413;52.770;6.892;2024-02-16T08:47:09;12.30;99.90
52889;DHT22;41413;52.770;6.892;2024-02-16T08:49:36;12.30;99.90
52889;DHT22;41413;52.770;6.892;2024-02-16T08:52:05;12.30;99.90
52889;DHT22;41413;52.770;6.892;2024-02-16T08:54:32;12.40;99.90
52889;DHT22;41413;52.770;6.892;2024-02-16T08:56:59;12.30;99.90
52889;DHT22;41413;52.770;6.892;2024-02-16T08:59:26;12.50;99.90
52889;DHT22;41413;52.770;6.892;2024-02-16T09:01:55;12.50;99.90
52889;DHT22;41413;52.770;6.892;2024-02-16T09:04:21;12.40;99.90
52889;DHT22;41413;52.770;6.892;2024-02-16T09:06:48;12.30;99.90
52889;DHT22;41413;52.770;6.892;2024-02-16T09:09:15;12.40;99.90
52889;DHT22;41413;52.770;6.892;2024-02-16T09:11:42;12.30;99.90
52889;DHT22;41413;52.770;6.892;2024-02-16T09:14:09;12.40;99.90
52889;DHT22;41413;52.770;6.892;2024-02-16T09:16:36;12.30;99.90
52889;DHT22;41413;52.770;6.892;2024-02-16T09:19:02;12.40;99.90
52889;DHT22;41413;52.770;6.892;2024-02-16T09:21:29;12.40;99.90
52889;DHT22;41413;52.770;6.892;2024-02-16T09:23:56;12.50;99.90
52889;DHT22;41413;52.770;6.892;2024-02-16T09:26:28;12.60;99.90
52889;DHT22;41413;52.770;6.892;2024-02-16T09:28:57;12.70;99.90
52889;DHT22;41413;52.770;6.892;2024-02-16T09:31:24;12.70;99.90
52889;DHT22;41413;52.770;6.892;2024-02-16T09:33:51;12.70;99.90
52889;DHT22;41413;52.770;6.892;2024-02-16T09:36:20;12.80;99.90
52889;DHT22;41413;52.770;6.892;2024-02-16T09:38:47;12.80;99.90
52889;DHT22;41413;52.770;6.892;2024-02-16T09:41:14;12.90;99.90
52889;DHT22;41413;52.770;6.892;2024-02-16T09:43:43;13.20;99.90
52889;DHT22;41413;52.770;6.892;2024-02-16T09:46:10;13.50;99.90
52889;DHT22;41413;52.770;6.892;2024-02-16T09:48:40;13.80;99.90
52889;DHT22;41413;52.770;6.892;2024-02-16T09:51:08;13.90;99.90
52889;DHT22;41413;52.770;6.892;2024-02-16T09:53:35;13.80;99.90
52889;DHT22;41413;52.770;6.892;2024-02-16T09:56:05;13.80;99.90
52889;DHT22;41413;52.770;6.892;2024-02-16T09:58:32;13.80;99.90
52889;DHT22;41413;52.770;6.892;2024-02-16T10:00:59;13.60;99.90
52889;DHT22;41413;52.770;6.892;2024-02-16T10:03:28;13.60;99.90
52889;DHT22;41413;52.770;6.892;2024-02-16T10:06:06;13.50;99.90
52889;DHT22;41413;52.770;6.892;2024-02-16T10:08:34;13.40;99.90
52889;DHT22;41413;52.770;6.892;2024-02-16T10:11:05;13.40;99.90
52889;DHT22;41413;52.770;6.892;2024-02-16T10:13:32;13.50;99.90
52889;DHT22;41413;52.770;6.892;2024-02-16T10:16:10;13.60;99.90
52889;DHT22;41413;52.770;6.892;2024-02-16T10:18:38;13.60;99.90
52889;DHT22;41413;52.770;6.892;2024-02-16T10:21:05;13.70;99.90
52889;DHT22;41413;52.770;6.892;2024-02-16T10:23:32;13.80;99.90
52889;DHT22;41413;52.770;6.892;2024-02-16T10:26:02;13.80;99.90
52889;DHT22;41413;52.770;6.892;2024-02-16T10:28:29;13.90;99.90
52889;DHT22;41413;52.770;6.892;2024-02-16T10:30:59;13.80;99.90
52889;DHT22;41413;52.770;6.892;2024-02-16T10:33:28;13.80;99.90
52889;DHT22;41413;52.770;6.892;2024-02-16T10:35:56;13.90;99.90
52889;DHT22;41413;52.770;6.892;2024-02-16T10:38:25;14.00;99.90
52889;DHT22;41413;52.770;6.892;2024-02-16T10:40:53;14.20;99.90
52889;DHT22;41413;52.770;6.892;2024-02-16T10:43:22;14.40;99.90
52889;DHT22;41413;52.770;6.892;2024-02-16T10:45:51;14.60;99.90
52889;DHT22;41413;52.770;6.892;2024-02-16T10:48:19;15.10;99.90
52889;DHT22;41413;52.770;6.892;2024-02-16T10:50:46;15.20;99.90
52889;DHT22;41413;52.770;6.892;2024-02-16T10:53:28;15.10;99.90
52889;DHT22;41413;52.770;6.892;2024-02-16T10:55:59;15.30;99.90
52889;DHT22;41413;52.770;6.892;2024-02-16T10:58:27;15.20;99.90
52889;DHT22;41413;52.770;6.892;2024-02-16T11:00:56;14.90;99.90
52889;DHT22;41413;52.770;6.892;2024-02-16T11:03:25;14.60;99.90
52889;DHT22;41413;52.770;6.892;2024-02-16T11:05:52;14.40;99.90
52889;DHT22;41413;52.770;6.892;2024-02-16T11:08:22;14.10;99.90
52889;DHT22;41413;52.770;6.892;2024-02-16T11:11:00;13.90;99.90
52889;DHT22;41413;52.770;6.892;2024-02-16T11:13:32;13.80;99.90
52889;DHT22;41413;52.770;6.892;2024-02-16T11:16:03;13.80;99.90
52889;DHT22;41413;52.770;6.892;2024-02-16T11:18:37;13.70;99.90
52889;DHT22;41413;52.770;6.892;2024-02-16T11:21:05;13.70;99.90
52889;DHT22;41413;52.770;6.892;2024-02-16T11:23:35;13.50;99.90
52889;DHT22;41413;52.770;6.892;2024-02-16T11:26:04;13.50;99.90
52889;DHT22;41413;52.770;6.892;2024-02-16T11:28:35;13.40;99.90
52889;DHT22;41413;52.770;6.892;2024-02-16T11:31:02;13.40;99.90
52889;DHT22;41413;52.770;6.892;2024-02-16T11:33:30;13.30;99.90
52889;DHT22;41413;52.770;6.892;2024-02-16T11:35:59;13.30;99.90
52889;DHT22;41413;52.770;6.892;2024-02-16T11:38:27;13.30;99.90
52889;DHT22;41413;52.770;6.892;2024-02-16T11:40:55;13.30;99.90
52889;DHT22;41413;52.770;6.892;2024-02-16T11:43:22;13.20;99.90
52889;DHT22;41413;52.770;6.892;2024-02-16T11:45:50;13.20;99.90
52889;DHT22;41413;52.770;6.892;2024-02-16T11:48:24;13.20;99.90
52889;DHT22;41413;52.770;6.892;2024-02-16T11:51:04;13.10;99.90
52889;DHT22;41413;52.770;6.892;2024-02-16T11:53:32;13.10;99.90
52889;DHT22;41413;52.770;6.892;2024-02-16T11:55:59;13.10;99.90
52889;DHT22;41413;52.770;6.892;2024-02-16T11:58:27;13.10;99.90
52889;DHT22;41413;52.770;6.892;2024-02-16T12:00:54;13.10;99.90
52889;DHT22;41413;52.770;6.892;2024-02-16T12:03:26;13.00;99.90
52889;DHT22;41413;52.770;6.892;2024-02-16T12:05:58;13.00;99.90
52889;DHT22;41413;52.770;6.892;2024-02-16T12:08:34;12.90;99.90
52889;DHT22;41413;52.770;6.892;2024-02-16T12:11:02;12.70;99.90
52889;DHT22;41413;52.770;6.892;2024-02-16T12:13:29;12.70;99.90
52889;DHT22;41413;52.770;6.892;2024-02-16T12:15:56;12.60;99.90
52889;DHT22;41413;52.770;6.892;2024-02-16T12:18:24;12.60;99.90
52889;DHT22;41413;52.770;6.892;2024-02-16T12:21:06;12.50;99.90
52889;DHT22;41413;52.770;6.892;2024-02-16T12:23:33;12.40;99.90
52889;DHT22;41413;52.770;6.892;2024-02-16T12:26:01;12.40;99.90
52889;DHT22;41413;52.770;6.892;2024-02-16T12:28:29;12.30;99.90
52889;DHT22;41413;52.770;6.892;2024-02-16T12:30:59;12.30;99.90
52889;DHT22;41413;52.770;6.892;2024-02-16T12:33:29;12.20;99.90
52889;DHT22;41413;52.770;6.892;2024-02-16T12:35:56;12.20;99.90
52889;DHT22;41413;52.770;6.892;2024-02-16T12:38:23;12.20;99.90
52889;DHT22;41413;52.770;6.892;2024-02-16T12:40:50;12.30;99.90
52889;DHT22;41413;52.770;6.892;2024-02-16T12:43:17;12.30;99.90
52889;DHT22;41413;52.770;6.892;2024-02-16T12:45:45;12.20;99.90
52889;DHT22;41413;52.770;6.892;2024-02-16T12:48:12;12.20;99.90
52889;DHT22;41413;52.770;6.892;2024-02-16T12:50:41;12.10;99.90
52889;DHT22;41413;52.770;6.892;2024-02-16T12:53:09;12.20;99.90
52889;DHT22;41413;52.770;6.892;2024-02-16T12:55:36;12.30;99.90
52889;DHT22;41413;52.770;6.892;2024-02-16T12:58:03;12.20;99.90
52889;DHT22;41413;52.770;6.892;2024-02-16T13:00:30;12.10;99.90
52889;DHT22;41413;52.770;6.892;2024-02-16T13:02:57;12.10;99.90
52889;DHT22;41413;52.770;6.892;2024-02-16T13:05:23;12.00;99.90
52889;DHT22;41413;52.770;6.892;2024-02-16T13:07:50;12.00;99.90
52889;DHT22;41413;52.770;6.892;2024-02-16T13:10:17;12.00;99.90
52889;DHT22;41413;52.770;6.892;2024-02-16T13:12:44;12.10;99.90
52889;DHT22;41413;52.770;6.892;2024-02-16T13:15:11;12.20;99.90
52889;DHT22;41413;52.770;6.892;2024-02-16T13:17:53;12.20;99.90
52889;DHT22;41413;52.770;6.892;2024-02-16T13:20:21;12.20;99.90
52889;DHT22;41413;52.770;6.892;2024-02-16T13:22:48;12.20;99.90
52889;DHT22;41413;52.770;6.892;2024-02-16T13:25:15;12.20;99.90
52889;DHT22;41413;52.770;6.892;2024-02-16T13:27:42;12.10;99.90
52889;DHT22;41413;52.770;6.892;2024-02-16T13:30:09;12.10;99.90
52889;DHT22;41413;52.770;6.892;2024-02-16T13:32:36;12.10;99.90
52889;DHT22;41413;52.770;6.892;2024-02-16T13:35:07;12.20;99.90
52889;DHT22;41413;52.770;6.892;2024-02-16T13:37:34;12.10;99.90
52889;DHT22;41413;52.770;6.892;2024-02-16T13:40:00;12.10;99.90
52889;DHT22;41413;52.770;6.892;2024-02-16T13:42:30;12.10;99.90
52889;DHT22;41413;52.770;6.892;2024-02-16T13:44:58;12.10;99.90
52889;DHT22;41413;52.770;6.892;2024-02-16T13:47:25;12.20;99.90
52889;DHT22;41413;52.770;6.892;2024-02-16T13:49:51;12.10;99.90
52889;DHT22;41413;52.770;6.892;2024-02-16T13:52:19;12.10;99.90
52889;DHT22;41413;52.770;6.892;2024-02-16T13:54:46;12.10;99.90
52889;DHT22;41413;52.770;6.892;2024-02-16T13:57:13;12.00;99.90
52889;DHT22;41413;52.770;6.892;2024-02-16T13:59:40;12.00;99.90
52889;DHT22;41413;52.770;6.892;2024-02-16T14:02:08;12.00;99.90
52889;DHT22;41413;52.770;6.892;2024-02-16T14:04:36;12.00;99.90
52889;DHT22;41413;52.770;6.892;2024-02-16T14:07:07;12.10;99.90
52889;DHT22;41413;52.770;6.892;2024-02-16T14:09:34;12.10;99.90
52889;DHT22;41413;52.770;6.892;2024-02-16T14:12:00;12.00;99.90
52889;DHT22;41413;52.770;6.892;2024-02-16T14:14:28;12.20;99.90
52889;DHT22;41413;52.770;6.892;2024-02-16T14:17:04;12.10;99.90
52889;DHT22;41413;52.770;6.892;2024-02-16T14:19:31;12.10;99.90
52889;DHT22;41413;52.770;6.892;2024-02-16T14:21:58;12.10;99.90
52889;DHT22;41413;52.770;6.892;2024-02-16T14:24:25;12.10;99.90
52889;DHT22;41413;52.770;6.892;2024-02-16T14:26:52;12.20;99.90
52889;DHT22;41413;52.770;6.892;2024-02-16T14:29:21;12.20;99.90
52889;DHT22;41413;52.770;6.892;2024-02-16T14:31:48;12.20;99.90
52889;DHT22;41413;52.770;6.892;2024-02-16T14:34:16;12.10;99.90
52889;DHT22;41413;52.770;6.892;2024-02-16T14:36:43;12.10;99.90
52889;DHT22;41413;52.770;6.892;2024-02-16T14:39:10;12.20;99.90
52889;DHT22;41413;52.770;6.892;2024-02-16T14:41:38;12.10;99.90
52889;DHT22;41413;52.770;6.892;2024-02-16T14:44:05;12.10;99.90
52889;DHT22;41413;52.770;6.892;2024-02-16T14:46:32;12.10;99.90
52889;DHT22;41413;52.770;6.892;2024-02-16T14:48:58;12.10;99.90
52889;DHT22;41413;52.770;6.892;2024-02-16T14:51:26;12.10;99.90
52889;DHT22;41413;52.770;6.892;2024-02-16T14:53:53;12.20;99.90
52889;DHT22;41413;52.770;6.892;2024-02-16T14:56:20;12.20;99.90
52889;DHT22;41413;52.770;6.892;2024-02-16T14:58:48;12.20;99.90
52889;DHT22;41413;52.770;6.892;2024-02-16T15:01:15;12.10;99.90
52889;DHT22;41413;52.770;6.892;2024-02-16T15:03:42;12.10;99.90
52889;DHT22;41413;52.770;6.892;2024-02-16T15:06:09;12.10;99.90
52889;DHT22;41413;52.770;6.892;2024-02-16T15:08:36;12.10;99.90
52889;DHT22;41413;52.770;6.892;2024-02-16T15:11:03;12.10;99.90
52889;DHT22;41413;52.770;6.892;2024-02-16T15:13:30;12.10;99.90
52889;DHT22;41413;52.770;6.892;2024-02-16T15:15:57;12.10;99.90
52889;DHT22;41413;52.770;6.892;2024-02-16T15:18:25;12.10;99.90
52889;DHT22;41413;52.770;6.892;2024-02-16T15:20:52;12.00;99.90
52889;DHT22;41413;52.770;6.892;2024-02-16T15:23:21;12.00;99.90
52889;DHT22;41413;52.770;6.892;2024-02-16T15:25:48;11.90;99.90
52889;DHT22;41413;52.770;6.892;2024-02-16T15:28:15;12.00;99.90
52889;DHT22;41413;52.770;6.892;2024-02-16T15:30:42;12.00;99.90
52889;DHT22;41413;52.770;6.892;2024-02-16T15:33:10;11.90;99.90
52889;DHT22;41413;52.770;6.892;2024-02-16T15:35:39;11.90;99.90